Startpagina
METAR-TAF:

METAR-TAF

Vliegvelden :

Internationale Luchthaven Chiang Rai

Chiang Rai, Thailand

breedte: 19-57-08N, lengte: 099-52-59E, hoogte: 390 m

Actueel weer

Dit bericht is 50 minuten geleden gemaakt, om 00:00 UTC
Weinig wind
Temperatuur 16°C
Vochtigheid 100%
Druk 1015 hPa
Zicht: 7000 m
Weinig wolken op 3000 ft

METAR: VTCT 250000Z 00000KT 7000 FEW030 16/16 Q1015 NOSIG

Tijdstip: 07:50 (00:50 UTC)

Verwachting

Dit bericht is 1 uur en het 50 minuten geleden gemaakt, om 23:00 UTC
Verwachting geldig van 25 om 00 UTC tot 26 om 06 UTC
Wind 5 kt uit het westen
Zicht: 9000 m
Weinig wolken op 3000 ft

TAF: VTCT 242300Z 2500/2606 28005KT 9000 FEW030

Waarnemingen en weersverwachtingen van meer dan 4000 vliegvelden (METAR en TAF).

De beschikbare stations zijn de gele en rode punten op de kaart.

Ga met uw muis naar het station om de naam te zien.

Klik dan om waarnemingen en weersverwachtingen te zien.

kaart wijzigen: klik op de groene knoppen met een zwart kruis om in te zoomen, op de groene knop met een streepje om uit te zoomen of op de groene pijlen voor aangrenzende kaarten.


METAR-TAF: